Time;durP1;ratioP1;P1;durP2;ratioP2;P2;SDS_P1;SDS_P2;PMS_P1;PMS_P2;Temp;Humidity;BMP_temperature;BMP_pressure;BME280_temperature;BME280_humidity;BME280_pressure;Samples;Min_cycle;Max_cycle;Signal;HPM_P1;HPM_P2
2021/04/07 02:50:02;;;;;;;1.20;0.60;;;;;;;17.13;53.43;101401.13;6296321;22;21014;-78
2021/04/07 02:52:28;;;;;;;1.58;0.55;;;;;;;17.14;53.60;101383.81;6276080;22;2030572;-82
2021/04/07 02:54:54;;;;;;;2.13;0.60;;;;;;;17.16;53.49;101384.66;6365116;22;19999;-81
2021/04/07 02:57:30;;;;;;;1.05;0.50;;;;;;;17.16;53.32;101384.66;6367614;22;20005;-81
2021/04/07 03:00:04;;;;;;;1.92;0.68;;;;;;;17.13;53.53;101382.94;6367674;22;20032;-81
2021/04/07 03:02:35;;;;;;;1.20;0.52;;;;;;;17.15;53.37;101382.94;6367600;22;20018;-81
2021/04/07 03:05:07;;;;;;;1.88;0.60;;;;;;;17.15;53.35;101388.16;6387737;22;20002;-80
2021/04/07 03:08:10;;;;;;;2.50;0.77;;;;;;;17.16;53.33;101389.88;6394204;22;19998;-81
2021/04/07 03:10:35;;;;;;;2.53;0.60;;;;;;;17.14;53.50;101378.63;6391443;22;20006;-81
2021/04/07 03:13:05;;;;;;;1.75;0.68;;;;;;;17.15;53.19;101376.00;6388447;22;20005;-81
2021/04/07 03:15:33;;;;;;;2.55;0.73;;;;;;;17.13;53.29;101367.34;6393051;22;20006;-81
2021/04/07 03:18:01;;;;;;;1.55;0.68;;;;;;;17.13;53.35;101362.13;6394311;22;20073;-81
2021/04/07 03:20:40;;;;;;;1.85;0.63;;;;;;;17.12;53.51;101365.63;6393154;22;20002;-80
2021/04/07 03:23:06;;;;;;;1.27;0.47;;;;;;;17.11;53.45;101350.84;6391443;22;20002;-81
2021/04/07 03:25:33;;;;;;;2.35;0.70;;;;;;;17.10;53.53;101353.47;6362974;22;20334;-80
2021/04/07 03:28:07;;;;;;;2.47;0.70;;;;;;;17.09;53.45;101339.59;6388764;22;20002;-81
2021/04/07 03:34:05;;;;;;;1.85;0.68;;;;;;;17.10;53.54;101327.47;6396902;22;20028;-81
2021/04/07 03:38:57;;;;;;;1.30;0.50;;;;;;;17.06;53.42;101322.25;6379141;22;20055;-81
2021/04/07 03:41:36;;;;;;;1.38;0.60;;;;;;;17.08;53.29;101327.47;6390713;22;20013;-81
2021/04/07 03:44:03;;;;;;;1.30;0.70;;;;;;;17.09;53.45;101307.53;6419919;22;19998;-81
2021/04/07 03:46:29;;;;;;;1.13;0.60;;;;;;;17.06;53.37;101295.41;6420120;22;20005;-81
2021/04/07 03:49:15;;;;;;;2.63;0.73;;;;;;;17.08;53.32;101285.00;6415568;22;20025;-80
2021/04/07 03:51:40;;;;;;;1.65;0.57;;;;;;;17.08;53.44;101285.00;6389441;22;20495;-81
2021/04/07 03:57:01;;;;;;;1.63;0.50;;;;;;;17.06;53.27;101285.00;6370946;22;20052;-81
2021/04/07 04:02:07;;;;;;;1.25;0.50;;;;;;;17.04;53.27;101274.59;6393876;22;20022;-81
2021/04/07 04:04:41;;;;;;;3.50;0.60;;;;;;;17.06;53.22;101277.19;6369099;22;20001;-81
2021/04/07 04:07:42;;;;;;;1.35;0.50;;;;;;;17.04;53.32;101264.19;6427197;22;19986;-81
2021/04/07 04:10:41;;;;;;;1.23;0.52;;;;;;;17.05;53.17;101278.94;6422374;22;20002;-82
2021/04/07 04:16:51;;;;;;;1.88;0.70;;;;;;;17.01;53.34;101264.19;6430729;22;20051;-82
2021/04/07 04:19:51;;;;;;;1.60;0.70;;;;;;;17.05;53.20;101259.88;6431011;22;19983;-81
2021/04/07 04:27:44;;;;;;;1.80;0.63;;;;;;;17.08;53.22;101272.00;6423928;22;20042;-80
2021/04/07 04:30:47;;;;;;;0.82;0.43;;;;;;;17.08;53.25;101275.47;6429951;22;19998;-81
2021/04/07 04:33:36;;;;;;;1.65;0.77;;;;;;;17.10;53.20;101263.31;6403300;22;20008;-82
2021/04/07 04:36:22;;;;;;;2.88;0.82;;;;;;;17.09;53.11;101263.31;6352980;22;20017;-80
2021/04/07 04:38:55;;;;;;;1.20;0.60;;;;;;;17.08;53.28;101266.81;6426728;22;19994;-80
2021/04/07 04:41:46;;;;;;;1.88;0.70;;;;;;;17.10;53.15;101267.66;6430961;22;20004;-83
2021/04/07 04:44:21;;;;;;;1.30;0.68;;;;;;;17.09;53.25;101265.91;6432168;22;20017;-81
2021/04/07 04:47:27;;;;;;;2.00;0.70;;;;;;;17.12;53.26;101276.34;6432079;22;20057;-80
2021/04/07 04:50:23;;;;;;;2.28;0.70;;;;;;;17.11;53.19;101265.03;6392222;22;20029;-80
2021/04/07 04:52:52;;;;;;;1.13;0.52;;;;;;;17.10;53.14;101273.72;6378405;22;20026;-80
2021/04/07 04:55:46;;;;;;;1.08;0.60;;;;;;;17.12;53.38;101285.00;6334360;22;20018;-80
2021/04/07 05:01:24;;;;;;;1.73;0.60;;;;;;;17.13;53.17;101285.84;6427304;22;20032;-81
2021/04/07 05:09:07;;;;;;;2.35;0.70;;;;;;;17.17;53.52;101305.78;6382436;22;20003;-80
2021/04/07 05:15:19;;;;;;;7.50;2.08;;;;;;;17.25;53.45;101297.13;6419675;22;20032;-79
2021/04/07 05:18:30;;;;;;;6.95;1.80;;;;;;;17.36;53.47;101311.88;6363694;22;20026;-79
2021/04/07 05:20:59;;;;;;;5.07;1.73;;;;;;;17.38;53.44;101324.00;6363934;22;20010;-79
2021/04/07 05:23:26;;;;;;;6.95;2.08;;;;;;;17.42;53.27;101324.84;6311738;22;20022;-79
2021/04/07 05:26:12;;;;;;;7.72;2.20;;;;;;;17.42;53.21;101309.22;6337068;22;20014;-79
2021/04/07 05:28:41;;;;;;;5.03;1.90;;;;;;;17.42;53.54;101328.31;6325504;22;20080;-79
2021/04/07 05:31:32;;;;;;;8.68;1.92;;;;;;;17.42;53.38;101336.13;6358560;22;20029;-79
2021/04/07 05:34:27;;;;;;;3.75;1.85;;;;;;;17.42;53.20;101336.13;6393174;22;20040;-79
2021/04/07 05:36:55;;;;;;;6.72;1.70;;;;;;;17.43;53.48;101350.88;6333746;22;19999;-80
2021/04/07 05:39:24;;;;;;;3.63;1.58;;;;;;;17.44;53.36;101347.41;6367216;22;20002;-79
2021/04/07 05:41:54;;;;;;;7.15;1.58;;;;;;;17.48;53.30;101354.34;6365026;22;20018;-80
2021/04/07 05:45:04;;;;;;;6.03;1.50;;;;;;;17.47;53.29;101351.75;6335656;22;19994;-79
2021/04/07 05:56:30;;;;;;;3.55;1.40;;;;;;;17.49;53.35;101378.63;6365377;22;20139;-80
2021/04/07 06:07:50;;;;;;;6.68;1.60;;;;;;;17.57;53.15;101402.91;6428529;22;20079;-80
2021/04/07 06:10:19;;;;;;;4.35;1.50;;;;;;;17.60;52.83;101420.25;6338556;22;20006;-80
2021/04/07 06:13:48;;;;;;;5.10;1.70;;;;;;;17.64;52.86;101420.25;6272632;23;20000;-80
2021/04/07 06:16:39;;;;;;;5.55;1.70;;;;;;;17.66;52.82;101421.13;6214995;23;20399;-79
2021/04/07 06:28:32;;;;;;;8.27;1.50;;;;;;;17.64;53.01;101451.50;6365648;22;20026;-80
2021/04/07 09:56:39;;;;;;;4.70;1.50;;;;;;;17.80;51.58;101814.22;6372580;22;20045;-81
2021/04/07 10:03:33;;;;;;;4.90;1.58;;;;;;;17.82;51.46;101809.06;6372487;22;20030;-82
2021/04/07 10:12:47;;;;;;;4.38;1.63;;;;;;;17.89;51.17;101813.44;6397608;22;20021;-83
2021/04/07 10:16:25;;;;;;;3.78;1.52;;;;;;;17.89;51.05;101816.91;6242417;23;20024;-81
2021/04/07 10:35:09;;;;;;;2.58;1.23;;;;;;;17.98;50.70;101836.03;6365019;22;20027;-80
2021/04/07 10:44:11;;;;;;;3.08;1.27;;;;;;;17.94;51.11;101848.16;6395072;22;20016;-82
2021/04/07 10:47:28;;;;;;;2.72;0.85;;;;;;;18.02;50.76;101853.44;6375131;22;19998;-82
2021/04/07 10:50:35;;;;;;;3.80;1.38;;;;;;;18.07;50.42;101851.72;6357858;22;20032;-81
2021/04/07 10:57:21;;;;;;;3.20;1.30;;;;;;;18.13;50.29;101877.78;6181925;23;20070;-82
2021/04/07 11:21:14;;;;;;;2.70;1.20;;;;;;;18.16;50.18;101892.56;6339355;22;20118;-81
2021/04/07 11:54:50;;;;;;;1.60;0.82;;;;;;;18.16;49.96;101901.28;6428365;22;20093;-81
2021/04/07 12:03:22;;;;;;;3.45;1.15;;;;;;;18.17;49.83;101910.81;6363869;22;20025;-82
2021/04/07 12:09:28;;;;;;;2.90;1.05;;;;;;;18.15;49.91;101920.34;6343345;22;20026;-81
2021/04/07 12:11:54;;;;;;;2.53;0.90;;;;;;;18.16;49.97;101918.59;6365007;22;20044;-82
2021/04/07 12:14:49;;;;;;;2.53;1.00;;;;;;;18.16;49.86;101922.13;6285674;22;19983;-81
2021/04/07 12:17:53;;;;;;;3.60;1.10;;;;;;;18.17;49.95;101934.25;6293625;22;20022;-82
2021/04/07 12:20:45;;;;;;;6.00;1.30;;;;;;;18.14;50.18;101928.16;6244441;23;20020;-82
2021/04/07 12:23:15;;;;;;;3.33;1.27;;;;;;;18.19;49.67;101934.28;6249345;23;20017;-81
2021/04/07 12:30:07;;;;;;;2.40;0.82;;;;;;;18.24;49.94;101936.03;6320404;22;20030;-80
2021/04/07 12:33:21;;;;;;;2.80;1.00;;;;;;;18.25;49.77;101942.13;6382815;22;20014;-81
2021/04/07 12:40:02;;;;;;;2.35;0.90;;;;;;;18.26;49.94;101946.47;6378810;22;20052;-82
2021/04/07 13:04:29;;;;;;;1.60;0.80;;;;;;;18.22;50.15;101962.94;6405734;22;20012;-82
2021/04/07 13:07:07;;;;;;;1.80;0.90;;;;;;;18.14;50.15;101980.25;6356619;22;20005;-82
2021/04/07 13:09:59;;;;;;;2.30;0.80;;;;;;;18.15;50.34;101997.63;6402686;22;19993;-82
2021/04/07 13:12:29;;;;;;;;;;;;;;;18.14;50.33;101999.38;6431406;22;20013;-82
2021/04/07 13:21:33;;;;;;;1.55;0.82;;;;;;;18.07;50.57;101994.97;6406610;22;20021;-82
2021/04/07 13:23:43;;;;;;;1.58;0.63;;;;;;;18.09;50.70;101999.34;6410046;22;20012;-81
2021/04/07 13:29:37;;;;;;;1.80;0.70;;;;;;;18.14;50.59;101995.88;6392841;22;20026;-82
2021/04/07 13:32:33;;;;;;;1.42;0.70;;;;;;;18.19;50.23;101994.19;6357819;22;20010;-82
2021/04/07 13:36:00;;;;;;;2.42;0.90;;;;;;;18.25;50.15;101995.09;6363492;22;20066;-81
2021/04/07 13:44:01;;;;;;;1.52;0.60;;;;;;;18.34;50.02;101996.03;6363621;22;20014;-79
2021/04/07 13:46:49;;;;;;;1.58;0.75;;;;;;;18.39;49.84;101991.69;6363647;22;20002;-80
2021/04/07 13:49:15;;;;;;;1.40;0.70;;;;;;;18.41;49.65;101992.59;6336074;22;20017;-79
2021/04/07 13:55:06;;;;;;;1.58;0.70;;;;;;;18.38;50.02;102018.63;6364174;22;20020;-81
2021/04/07 13:57:33;;;;;;;1.90;0.88;;;;;;;18.38;49.90;102023.81;6333075;22;20042;-81
2021/04/07 14:00:07;;;;;;;1.27;0.60;;;;;;;18.38;49.91;102016.91;6309336;22;20041;-82
2021/04/07 14:02:34;;;;;;;1.83;0.80;;;;;;;18.37;50.13;102022.97;6362636;22;20174;-81
2021/04/07 14:05:18;;;;;;;2.90;0.90;;;;;;;18.37;49.99;102020.34;6392054;22;19999;-81
2021/04/07 14:07:45;;;;;;;;;;;;;;;18.36;50.04;102036.00;6428982;22;19986;-80
2021/04/07 14:11:04;;;;;;;2.90;0.93;;;;;;;18.29;50.17;102035.97;6361913;22;19899;-80
2021/04/07 14:17:29;;;;;;;1.80;0.70;;;;;;;18.28;50.41;102049.84;6364475;22;20063;-80
2021/04/07 14:19:56;;;;;;;1.52;0.80;;;;;;;18.29;50.28;102055.91;6403752;22;20023;-84
2021/04/07 14:22:38;;;;;;;2.08;0.73;;;;;;;18.29;50.36;102055.91;6378021;22;19996;-80
2021/04/07 14:25:25;;;;;;;1.73;0.63;;;;;;;18.32;50.26;102050.75;6430301;22;19998;-80
2021/04/07 14:27:58;;;;;;;3.35;0.68;;;;;;;18.38;49.87;102049.88;6399157;22;20029;-83
2021/04/07 14:30:43;;;;;;;1.35;0.70;;;;;;;18.40;49.88;102046.47;6270273;23;20008;-81
2021/04/07 14:33:45;;;;;;;2.08;0.73;;;;;;;18.47;49.87;102047.38;6244636;23;19992;-82
2021/04/07 14:36:18;;;;;;;1.52;0.75;;;;;;;18.49;49.66;102048.25;6154929;23;20005;-80
2021/04/07 14:38:44;;;;;;;1.08;0.70;;;;;;;18.52;49.73;102045.63;6178790;23;20005;-80
2021/04/07 14:41:16;;;;;;;2.63;0.60;;;;;;;18.57;49.78;102059.56;6153642;23;19997;-82
2021/04/07 14:43:42;;;;;;;2.03;0.80;;;;;;;18.59;49.66;102054.38;6156439;23;20238;-81
2021/04/07 14:49:30;;;;;;;1.75;0.60;;;;;;;18.59;49.96;102033.50;6179320;23;20039;-81
2021/04/07 14:52:03;;;;;;;3.88;0.65;;;;;;;18.62;49.84;102052.66;6178622;23;20009;-79
2021/04/07 14:56:58;;;;;;;2.08;0.60;;;;;;;18.58;50.17;102048.28;6179295;23;20013;-82
2021/04/07 14:59:23;;;;;;;1.60;0.70;;;;;;;18.56;50.30;102052.63;6153521;23;20036;-80
2021/04/07 15:01:55;;;;;;;3.72;0.70;;;;;;;18.60;49.83;102059.59;6276078;22;20002;-82
2021/04/07 15:20:09;;;;;;;3.22;0.70;;;;;;;18.52;50.46;102070.84;6333246;22;20034;-82
2021/04/07 15:25:37;;;;;;;3.78;0.73;;;;;;;18.50;50.51;102069.09;6371630;22;20034;-82
2021/04/07 15:30:57;;;;;;;1.75;0.65;;;;;;;18.55;50.21;102076.94;6361782;22;20026;-80
2021/04/07 15:33:29;;;;;;;5.70;0.77;;;;;;;18.55;50.33;102073.47;6307876;22;20013;-83
2021/04/07 15:35:54;;;;;;;2.72;0.88;;;;;;;18.55;50.24;102076.94;6326142;22;20035;-81
2021/04/07 15:38:38;;;;;;;1.98;0.70;;;;;;;18.60;50.21;102095.25;6328760;22;20007;-81
2021/04/07 15:41:19;;;;;;;0.82;0.50;;;;;;;18.62;50.34;102091.78;6378732;22;20017;-82
2021/04/07 15:43:46;;;;;;;1.33;0.52;;;;;;;18.63;50.24;102113.50;6401141;22;20065;-81
2021/04/07 15:46:32;;;;;;;2.03;0.70;;;;;;;18.56;50.43;102123.00;6428564;22;19994;-83
2021/04/07 15:48:59;;;;;;;1.45;0.70;;;;;;;18.45;50.50;102129.88;6424662;22;19998;-82
2021/04/07 15:57:48;;;;;;;2.25;0.80;;;;;;;18.41;50.61;102105.53;6398147;22;20243;-82
2021/04/07 16:00:41;;;;;;;1.38;0.50;;;;;;;18.40;50.46;102098.56;6358716;22;20002;-82
2021/04/07 16:03:53;;;;;;;1.65;0.60;;;;;;;18.41;50.66;102102.91;6331619;22;20123;-81
2021/04/07 16:07:06;;;;;;;2.10;0.90;;;;;;;18.41;50.47;102092.50;6335124;22;20022;-81
2021/04/07 16:19:17;;;;;;;2.50;1.08;;;;;;;18.41;50.61;102096.84;6377188;22;20086;-81
2021/04/07 16:25:13;;;;;;;2.58;1.00;;;;;;;18.45;50.48;102112.50;6362039;22;20020;-82
2021/04/07 16:31:27;;;;;;;3.75;0.90;;;;;;;18.43;50.59;102110.75;6362292;22;20040;-81
2021/04/07 18:18:16;;;;;;;7.68;2.60;;;;;;;18.36;53.59;102171.53;6415937;22;20028;-81
2021/04/07 18:27:32;;;;;;;5.93;2.45;;;;;;;18.29;53.57;102173.16;6385844;22;20013;-81
2021/04/07 18:30:23;;;;;;;6.18;2.38;;;;;;;18.27;53.65;102172.31;6350346;22;20018;-82
2021/04/07 18:33:10;;;;;;;7.82;2.63;;;;;;;18.27;53.65;102177.53;6349492;22;20024;-80
2021/04/07 18:36:15;;;;;;;5.47;2.35;;;;;;;18.25;53.63;102180.09;6361539;22;20010;-81
2021/04/07 18:38:50;;;;;;;6.05;2.17;;;;;;;18.24;53.55;102185.28;6336449;22;20028;-80
2021/04/07 18:41:20;;;;;;;6.70;2.53;;;;;;;18.23;53.75;102188.78;6314849;22;20003;-80
2021/04/07 18:43:48;;;;;;;6.57;2.60;;;;;;;18.22;53.55;102185.28;6365499;22;20050;-80
2021/04/07 18:46:34;;;;;;;6.22;2.60;;;;;;;18.20;53.63;102188.72;6361289;22;20018;-80
2021/04/07 18:49:06;;;;;;;6.68;2.45;;;;;;;18.17;53.54;102186.09;6244922;23;20075;-79
2021/04/07 18:51:36;;;;;;;6.68;2.40;;;;;;;18.19;53.74;102192.22;6267422;23;20067;-80
2021/04/07 18:54:05;;;;;;;4.13;2.25;;;;;;;18.15;53.45;102191.28;6252065;22;20008;-80
2021/04/07 18:57:08;;;;;;;8.38;2.50;;;;;;;18.17;53.36;102197.41;6270084;22;20146;-79
2021/04/07 18:59:35;;;;;;;6.68;2.60;;;;;;;18.16;53.61;102197.38;6264899;22;20036;-79
2021/04/07 19:02:07;;;;;;;6.40;2.47;;;;;;;18.14;53.60;102197.38;6293344;22;20016;-78
2021/04/07 19:04:51;;;;;;;7.13;2.20;;;;;;;18.14;53.42;102199.09;6292082;22;20004;-78
2021/04/07 19:07:45;;;;;;;5.20;2.38;;;;;;;18.13;53.48;102200.81;6335965;22;20018;-79
2021/04/07 19:12:49;;;;;;;4.45;1.80;;;;;;;18.12;53.53;102198.19;6391941;22;20316;-80
2021/04/07 19:15:23;;;;;;;4.60;2.15;;;;;;;18.15;53.16;102211.28;6367423;22;20089;-79
2021/04/07 19:18:15;;;;;;;5.97;2.30;;;;;;;18.15;53.42;102206.94;6396814;22;20002;-79
2021/04/07 19:20:59;;;;;;;4.85;1.90;;;;;;;18.15;53.13;102209.53;6424035;22;20071;-79
2021/04/07 19:24:08;;;;;;;5.30;2.03;;;;;;;18.14;53.11;102202.59;6370490;22;20014;-79
2021/04/07 19:26:42;;;;;;;7.38;1.95;;;;;;;18.17;52.97;102207.81;6376397;22;20496;-79
2021/04/07 19:29:21;;;;;;;;;;;;;;;18.17;53.01;102210.41;6396094;22;20014;-80
2021/04/07 19:31:48;;;;;;;5.07;1.85;;;;;;;18.17;53.02;102213.03;6393891;22;19902;-78
2021/04/07 19:34:15;;;;;;;4.30;1.77;;;;;;;18.18;52.86;102212.19;6391167;22;20026;-78
2021/04/07 19:36:48;;;;;;;7.72;1.95;;;;;;;18.18;52.86;102214.78;6392786;22;20010;-79
2021/04/07 19:39:39;;;;;;;4.93;1.90;;;;;;;18.20;52.70;102210.44;6386301;22;20052;-78
2021/04/07 19:50:41;;;;;;;4.45;1.65;;;;;;;18.19;52.40;102223.47;6410149;22;20048;-81
2021/04/07 19:53:20;;;;;;;5.53;1.95;;;;;;;18.19;52.77;102229.56;6425768;22;20010;-81
2021/04/07 19:56:06;;;;;;;5.10;1.75;;;;;;;18.19;52.65;102220.88;6425743;22;20010;-80
2021/04/07 19:59:11;;;;;;;3.22;1.55;;;;;;;18.21;52.45;102230.44;6362128;22;20074;-81
2021/04/07 20:02:23;;;;;;;3.90;1.60;;;;;;;18.21;52.31;102227.84;6388936;22;20010;-80
2021/04/07 20:04:49;;;;;;;4.38;1.80;;;;;;;18.19;52.40;102229.56;6396335;22;19990;-82
2021/04/07 20:07:16;;;;;;;3.70;1.50;;;;;;;18.22;52.61;102232.19;6369359;22;20085;-80
2021/04/07 20:15:40;;;;;;;4.03;1.50;;;;;;;18.22;52.41;102245.19;6362281;22;20040;-80
2021/04/07 20:37:28;;;;;;;3.00;1.55;;;;;;;18.17;52.39;102259.06;6380195;22;20025;-81
2021/04/07 20:40:17;;;;;;;3.20;1.50;;;;;;;18.14;52.33;102253.78;6398601;22;20010;-81
2021/04/07 20:42:48;;;;;;;4.05;1.60;;;;;;;18.15;52.51;102258.16;6397343;22;19998;-81
2021/04/07 20:45:21;;;;;;;4.35;1.65;;;;;;;18.14;52.41;102251.19;6376074;22;20006;-81
2021/04/07 20:48:02;;;;;;;2.33;1.20;;;;;;;18.11;52.38;102253.78;6402723;22;20002;-81
2021/04/07 20:53:23;;;;;;;3.67;1.58;;;;;;;18.08;52.39;102255.50;6423791;22;20066;-81
2021/04/07 20:55:54;;;;;;;2.58;1.02;;;;;;;18.04;52.48;102253.69;6417757;22;20505;-80
2021/04/07 20:58:20;;;;;;;2.80;1.33;;;;;;;18.02;52.46;102259.75;6420902;22;20002;-79
2021/04/07 21:00:46;;;;;;;3.42;1.42;;;;;;;17.95;52.38;102252.75;6365718;22;20070;-80
2021/04/07 21:03:14;;;;;;;5.88;1.30;;;;;;;17.94;52.51;102261.41;6419376;22;19998;-80
2021/04/07 21:05:40;;;;;;;2.97;1.50;;;;;;;17.92;52.29;102265.72;6418985;22;20002;-80
2021/04/07 21:08:07;;;;;;;3.60;1.38;;;;;;;17.89;52.49;102266.56;6386824;22;20028;-79
2021/04/07 21:10:33;;;;;;;5.65;1.58;;;;;;;17.89;52.61;102266.56;6389923;22;20417;-80
2021/04/07 21:13:01;;;;;;;5.70;1.40;;;;;;;17.85;52.73;102265.63;6388098;22;20066;-80
2021/04/07 21:15:28;;;;;;;3.47;1.27;;;;;;;17.83;52.77;102275.19;6389380;22;20017;-80
2021/04/07 21:18:14;;;;;;;6.57;1.48;;;;;;;17.85;52.60;102275.19;6391248;22;20009;-80
2021/04/07 21:20:41;;;;;;;3.50;1.40;;;;;;;17.84;52.69;102274.31;6388622;22;20333;-79
2021/04/07 21:23:07;;;;;;;4.75;1.40;;;;;;;17.80;52.45;102269.88;6389898;22;20066;-79
2021/04/07 21:25:32;;;;;;;2.80;1.30;;;;;;;17.80;52.24;102266.41;6391587;22;20002;-80
2021/04/07 21:27:58;;;;;;;3.10;1.40;;;;;;;17.79;52.43;102267.25;6392274;22;20039;-79
2021/04/07 21:30:24;;;;;;;4.18;1.60;;;;;;;17.80;52.38;102276.84;6396220;22;19983;-80
2021/04/07 21:35:27;;;;;;;5.43;1.45;;;;;;;17.76;52.37;102280.25;6360803;22;20018;-80
2021/04/07 21:37:52;;;;;;;6.72;1.38;;;;;;;17.76;52.43;102281.13;6335024;22;20125;-80
2021/04/07 21:40:18;;;;;;;3.90;1.23;;;;;;;17.77;52.39;102282.88;6309479;22;20011;-79
2021/04/07 21:42:55;;;;;;;2.65;1.30;;;;;;;17.75;52.31;102284.59;6306923;22;20462;-80
2021/04/07 21:45:27;;;;;;;4.15;1.27;;;;;;;17.74;52.27;102293.25;6331044;22;20044;-79
2021/04/07 21:47:54;;;;;;;3.80;1.38;;;;;;;17.72;52.33;102292.34;6329311;22;20063;-80
2021/04/07 21:50:27;;;;;;;3.13;1.02;;;;;;;17.72;52.27;102287.13;6331284;22;20330;-80
2021/04/07 21:52:52;;;;;;;4.50;1.27;;;;;;;17.72;52.40;102292.34;6360009;22;19998;-80
2021/04/07 21:55:17;;;;;;;3.13;1.10;;;;;;;17.71;52.37;102285.41;6359643;22;20025;-80
2021/04/07 21:57:51;;;;;;;7.65;1.52;;;;;;;17.72;52.29;102294.94;6360510;22;20076;-80
2021/04/07 22:00:47;;;;;;;2.30;1.20;;;;;;;17.70;52.16;102296.66;6379667;22;20033;-79
2021/04/07 22:03:22;;;;;;;3.03;1.10;;;;;;;17.71;52.08;102298.41;6393868;22;20263;-79
2021/04/07 22:05:49;;;;;;;3.10;1.10;;;;;;;17.70;52.13;102294.06;6393253;22;20014;-80
2021/04/07 22:08:16;;;;;;;3.25;1.15;;;;;;;17.72;52.04;102305.34;6366667;22;20062;-80
2021/04/07 22:10:42;;;;;;;2.85;1.13;;;;;;;17.72;52.12;102302.75;6397214;22;19990;-80
2021/04/07 22:13:17;;;;;;;2.88;1.20;;;;;;;17.68;51.92;102301.88;6372067;22;20009;-81
2021/04/07 22:15:49;;;;;;;3.83;1.40;;;;;;;17.67;52.12;102302.69;6371050;22;20060;-79
2021/04/07 22:18:20;;;;;;;3.05;1.20;;;;;;;17.70;51.88;102312.28;6368180;22;19998;-79
2021/04/07 22:21:02;;;;;;;3.28;1.20;;;;;;;17.68;52.01;102300.97;6366935;22;20002;-80
2021/04/07 22:23:31;;;;;;;3.70;1.30;;;;;;;17.69;51.85;102316.63;6343596;22;20082;-80
2021/04/07 22:26:17;;;;;;;2.47;1.40;;;;;;;17.71;51.79;102323.59;6272540;22;20004;-79
2021/04/07 22:28:45;;;;;;;3.58;1.13;;;;;;;17.69;52.07;102319.22;6270960;22;20067;-79
2021/04/07 22:31:13;;;;;;;2.67;1.10;;;;;;;17.69;52.08;102315.75;6297089;22;20004;-80
2021/04/07 22:33:47;;;;;;;2.67;1.27;;;;;;;17.70;51.74;102314.88;6298523;22;20004;-80
2021/04/07 22:36:34;;;;;;;2.63;1.17;;;;;;;17.67;51.93;102320.06;6297969;22;20007;-79
2021/04/07 22:39:05;;;;;;;2.55;1.00;;;;;;;17.66;51.89;102323.53;6297594;22;20015;-79
2021/04/07 22:41:31;;;;;;;2.17;1.00;;;;;;;17.67;51.83;102320.06;6301163;22;19988;-80
2021/04/07 22:43:57;;;;;;;2.20;0.98;;;;;;;17.66;51.77;102313.97;6274935;22;20014;-80
2021/04/07 22:46:24;;;;;;;3.35;1.25;;;;;;;17.67;51.77;102315.72;6301931;22;20003;-80
2021/04/07 22:48:51;;;;;;;3.40;1.17;;;;;;;17.68;51.82;102321.78;6301292;22;20000;-80
2021/04/07 22:51:18;;;;;;;2.53;1.20;;;;;;;17.64;51.71;102318.28;6315143;22;20007;-79
2021/04/07 22:53:46;;;;;;;2.88;1.25;;;;;;;17.65;51.52;102312.22;6331407;22;20419;-80
2021/04/07 22:56:15;;;;;;;3.80;1.00;;;;;;;17.64;51.89;102320.03;6330595;22;20003;-80
2021/04/07 22:58:46;;;;;;;3.17;1.00;;;;;;;17.65;51.78;102317.41;6389322;22;20066;-80
2021/04/07 23:01:12;;;;;;;2.28;0.95;;;;;;;17.65;51.67;102324.38;6364010;22;20070;-81
2021/04/07 23:03:39;;;;;;;2.20;1.00;;;;;;;17.66;51.44;102327.00;6392025;22;20036;-80
2021/04/07 23:06:11;;;;;;;2.20;1.02;;;;;;;17.66;51.40;102324.41;6391946;22;20050;-80
2021/04/07 23:08:40;;;;;;;3.45;1.00;;;;;;;17.64;51.80;102333.91;6385191;22;20021;-80
2021/04/07 23:11:08;;;;;;;3.28;1.23;;;;;;;17.65;51.59;102337.38;6365311;22;20311;-79
2021/04/07 23:13:34;;;;;;;2.55;0.98;;;;;;;17.64;51.58;102344.31;6351590;22;20015;-80
2021/04/07 23:16:01;;;;;;;1.98;0.95;;;;;;;17.66;51.55;102344.34;6353339;22;20037;-78
2021/04/07 23:18:42;;;;;;;2.28;1.00;;;;;;;17.65;51.73;102347.78;6308224;22;20014;-80
2021/04/07 23:21:15;;;;;;;3.58;1.00;;;;;;;17.63;51.56;102339.94;6338426;22;20010;-80
2021/04/07 23:23:42;;;;;;;1.63;0.80;;;;;;;17.63;51.28;102339.09;6362000;22;20003;-79
2021/04/07 23:26:08;;;;;;;1.85;1.00;;;;;;;17.63;51.42;102344.28;6337597;22;20020;-79
2021/04/07 23:28:37;;;;;;;2.75;1.20;;;;;;;17.64;51.51;102344.31;6363424;22;20018;-79
2021/04/07 23:31:05;;;;;;;2.42;1.20;;;;;;;17.61;51.39;102340.78;6335441;22;20002;-80
2021/04/07 23:33:31;;;;;;;2.58;1.00;;;;;;;17.63;51.54;102345.16;6362299;22;20053;-80
2021/04/07 23:36:06;;;;;;;3.35;1.17;;;;;;;17.61;51.35;102338.19;6341335;22;19995;-80
2021/04/07 23:38:36;;;;;;;2.85;1.17;;;;;;;17.61;51.39;102341.66;6392501;22;20024;-80
2021/04/07 23:41:04;;;;;;;1.95;0.80;;;;;;;17.61;51.33;102346.00;6369283;22;20374;-80
2021/04/07 23:43:29;;;;;;;3.55;1.15;;;;;;;17.59;51.23;102339.88;6341673;22;20013;-79
2021/04/07 23:45:59;;;;;;;2.38;1.02;;;;;;;17.58;51.38;102341.63;6366910;22;19999;-79
2021/04/07 23:48:25;;;;;;;2.13;1.08;;;;;;;17.60;51.24;102346.88;6342062;22;20010;-80
2021/04/07 23:50:52;;;;;;;2.53;1.05;;;;;;;17.58;51.38;102339.03;6376287;22;20039;-80
2021/04/07 23:53:24;;;;;;;4.05;0.90;;;;;;;17.60;51.36;102350.34;6394295;22;20002;-79
2021/04/07 23:55:52;;;;;;;2.65;1.10;;;;;;;17.58;51.30;102340.75;6393502;22;19995;-80
2021/04/07 23:58:17;;;;;;;3.35;0.90;;;;;;;17.58;51.29;102344.22;6394857;22;20025;-79
